Time;durP1;ratioP1;P1;durP2;ratioP2;P2;SDS_P1;SDS_P2;PMS_P1;PMS_P2;Temp;Humidity;BMP_temperature;BMP_pressure;BME280_temperature;BME280_humidity;BME280_pressure;Samples;Min_cycle;Max_cycle;Signal;HPM_P1;HPM_P2
2023/12/14 03:09:36;;;;;;;;;;;7.60;99.90;;;;;;2604364;54;21171;-70
2023/12/14 03:12:06;;;;;;;;;;;6.60;99.90;;;;;;2614538;54;19954;-70
2023/12/14 03:14:38;;;;;;;;;;;6.60;99.90;;;;;;2612951;54;20612;-70
2023/12/14 03:17:12;;;;;;;;;;;6.70;99.90;;;;;;2613789;47;19954;-70
2023/12/14 03:19:42;;;;;;;;;;;6.70;99.90;;;;;;2616955;54;20034;-69
2023/12/14 03:22:12;;;;;;;;;;;6.70;99.90;;;;;;2615960;47;19950;-69
2023/12/14 03:24:44;;;;;;;;;;;6.70;99.90;;;;;;2614744;54;19939;-70
2023/12/14 03:27:14;;;;;;;;;;;6.70;99.90;;;;;;2611848;54;19951;-70
2023/12/14 03:29:44;;;;;;;;;;;6.70;99.90;;;;;;2615333;31;20461;-70
2023/12/14 03:32:13;;;;;;;;;;;6.80;99.90;;;;;;2615664;54;19953;-70
2023/12/14 03:34:43;;;;;;;;;;;6.80;99.90;;;;;;2613832;47;20042;-70
2023/12/14 03:37:12;;;;;;;;;;;6.80;99.90;;;;;;2614873;54;19943;-71
2023/12/14 03:39:45;;;;;;;;;;;6.80;99.90;;;;;;2615210;54;19947;-70
2023/12/14 03:42:14;;;;;;;;;;;6.90;99.90;;;;;;2617242;54;19957;-70
2023/12/14 03:44:44;;;;;;;;;;;6.90;99.90;;;;;;2616264;54;19954;-70
2023/12/14 03:47:13;;;;;;;;;;;6.90;99.90;;;;;;2615532;54;19946;-70
2023/12/14 03:49:43;;;;;;;;;;;6.90;99.90;;;;;;2615845;54;20001;-69
2023/12/14 03:52:13;;;;;;;;;;;7.00;99.90;;;;;;2617836;50;19955;-69
2023/12/14 03:54:45;;;;;;;;;;;7.00;99.90;;;;;;2615672;54;20042;-69
2023/12/14 03:57:14;;;;;;;;;;;7.00;99.90;;;;;;2616685;54;19941;-69
2023/12/14 03:59:44;;;;;;;;;;;7.00;99.90;;;;;;2615702;54;19946;-69
2023/12/14 04:02:14;;;;;;;;;;;7.00;99.90;;;;;;2614826;54;19946;-71
2023/12/14 04:04:45;;;;;;;;;;;7.00;99.90;;;;;;2612931;54;19947;-69
2023/12/14 04:07:14;;;;;;;;;;;7.00;99.90;;;;;;2616081;54;20449;-70
2023/12/14 04:09:48;;;;;;;;;;;7.10;99.90;;;;;;2615648;54;19946;-70
2023/12/14 04:12:18;;;;;;;;;;;7.10;99.90;;;;;;2615342;54;19951;-70
2023/12/14 04:14:49;;;;;;;;;;;7.10;99.90;;;;;;2615758;39;20117;-70
2023/12/14 04:17:19;;;;;;;;;;;7.10;99.90;;;;;;2614637;54;19953;-70
2023/12/14 04:19:48;;;;;;;;;;;7.10;99.90;;;;;;2616045;39;20374;-69
2023/12/14 04:22:18;;;;;;;;;;;7.20;99.90;;;;;;2617210;47;19935;-69
2023/12/14 04:24:50;;;;;;;;;;;7.20;99.90;;;;;;2613492;54;19946;-70
2023/12/14 04:27:20;;;;;;;;;;;7.20;99.90;;;;;;2615894;54;19959;-69
2023/12/14 04:29:49;;;;;;;;;;;7.20;99.90;;;;;;2612964;47;19958;-70
2023/12/14 04:32:19;;;;;;;;;;;7.20;99.90;;;;;;2615885;39;20325;-69
2023/12/14 04:34:49;;;;;;;;;;;7.10;99.90;;;;;;2614260;54;19945;-70
2023/12/14 04:37:18;;;;;;;;;;;7.20;99.90;;;;;;2615386;54;20453;-71
2023/12/14 04:39:51;;;;;;;;;;;7.20;99.90;;;;;;2612106;54;19969;-71
2023/12/14 04:42:20;;;;;;;;;;;7.20;99.90;;;;;;2615861;47;19953;-70
2023/12/14 04:44:50;;;;;;;;;;;7.30;99.90;;;;;;2614370;54;19946;-71
2023/12/14 04:47:19;;;;;;;;;;;7.30;99.90;;;;;;2615680;47;19955;-70
2023/12/14 04:49:49;;;;;;;;;;;7.30;99.90;;;;;;2614232;54;19950;-70
2023/12/14 04:52:19;;;;;;;;;;;7.30;99.90;;;;;;2615909;54;19957;-70
2023/12/14 04:54:51;;;;;;;;;;;7.40;99.90;;;;;;2612303;54;20460;-71
2023/12/14 04:57:20;;;;;;;;;;;7.40;99.90;;;;;;2616408;47;19939;-70
2023/12/14 04:59:50;;;;;;;;;;;7.40;99.90;;;;;;2615326;54;19950;-68
2023/12/14 05:02:22;;;;;;;;;;;7.40;99.90;;;;;;2615856;54;19946;-70
2023/12/14 05:04:52;;;;;;;;;;;7.50;99.90;;;;;;2614422;54;19962;-70
2023/12/14 05:07:23;;;;;;;;;;;7.50;99.90;;;;;;2612473;54;20038;-70
2023/12/14 05:09:56;;;;;;;;;;;7.50;99.90;;;;;;2613726;47;19938;-69
2023/12/14 05:12:28;;;;;;;;;;;7.50;99.90;;;;;;2615849;46;19965;-70
2023/12/14 05:14:58;;;;;;;;;;;7.50;99.90;;;;;;2614010;54;19957;-70
2023/12/14 05:17:28;;;;;;;;;;;7.50;99.90;;;;;;2612508;47;19946;-70
2023/12/14 05:19:58;;;;;;;;;;;7.50;99.90;;;;;;2614137;54;19962;-70
2023/12/14 05:22:28;;;;;;;;;;;7.50;99.90;;;;;;2613495;54;20018;-70
2023/12/14 05:25:00;;;;;;;;;;;7.50;99.90;;;;;;2613024;54;19954;-70
2023/12/14 05:27:30;;;;;;;;;;;7.50;99.90;;;;;;2613400;47;19947;-72
2023/12/14 05:29:59;;;;;;;;;;;7.50;99.90;;;;;;2614351;54;19947;-70
2023/12/14 05:32:29;;;;;;;;;;;7.50;99.90;;;;;;2613981;54;20825;-71
2023/12/14 05:34:59;;;;;;;;;;;9.50;99.90;;;;;;2615685;54;20062;-70
2023/12/14 05:37:29;;;;;;;;;;;7.50;99.90;;;;;;2614955;39;20349;-69
2023/12/14 05:40:01;;;;;;;;;;;7.50;99.90;;;;;;2614738;54;19951;-70
2023/12/14 05:42:31;;;;;;;;;;;7.60;99.90;;;;;;2613911;50;19953;-69
2023/12/14 05:45:01;;;;;;;;;;;7.50;99.90;;;;;;2616140;54;19954;-69
2023/12/14 05:47:31;;;;;;;;;;;7.50;99.90;;;;;;2614853;54;19938;-70
2023/12/14 05:50:01;;;;;;;;;;;7.50;99.90;;;;;;2615865;51;19985;-69
2023/12/14 05:52:31;;;;;;;;;;;7.50;99.90;;;;;;2615039;46;20092;-69
2023/12/14 05:55:03;;;;;;;;;;;7.50;99.90;;;;;;2614544;54;20067;-71
2023/12/14 05:57:33;;;;;;;;;;;7.50;99.90;;;;;;2615643;54;19954;-69
2023/12/14 06:00:03;;;;;;;;;;;7.50;99.90;;;;;;2614117;54;19939;-70
2023/12/14 06:02:33;;;;;;;;;;;7.40;99.90;;;;;;2616229;54;19946;-69
2023/12/14 06:05:03;;;;;;;;;;;7.50;99.90;;;;;;2616817;54;19962;-69
2023/12/14 06:07:33;;;;;;;;;;;7.50;99.90;;;;;;2613698;54;20422;-69
2023/12/14 06:10:06;;;;;;;;;;;7.60;99.90;;;;;;2614588;54;19946;-69
2023/12/14 06:12:35;;;;;;;;;;;7.60;99.90;;;;;;2616304;54;19958;-70
2023/12/14 06:15:06;;;;;;;;;;;7.60;99.90;;;;;;2615190;47;19963;-69
2023/12/14 06:17:37;;;;;;;;;;;7.70;99.90;;;;;;2615266;54;20456;-69
2023/12/14 06:20:08;;;;;;;;;;;7.70;99.90;;;;;;2615363;53;19946;-69
2023/12/14 06:22:38;;;;;;;;;;;8.40;99.90;;;;;;2614825;47;19965;-68
2023/12/14 06:25:11;;;;;;;;;;;7.70;99.90;;;;;;2615499;54;19947;-69
2023/12/14 06:27:40;;;;;;;;;;;7.80;99.90;;;;;;2615681;54;21135;-68
2023/12/14 06:30:11;;;;;;;;;;;7.80;99.90;;;;;;2615444;47;20475;-69
2023/12/14 06:32:41;;;;;;;;;;;7.80;99.90;;;;;;2615693;54;19973;-69
2023/12/14 06:35:11;;;;;;;;;;;7.80;99.90;;;;;;2615723;54;19939;-69
2023/12/14 06:37:41;;;;;;;;;;;7.80;99.90;;;;;;2615105;39;20373;-69
2023/12/14 06:40:14;;;;;;;;;;;7.90;99.90;;;;;;2615990;47;19950;-69
2023/12/14 06:42:44;;;;;;;;;;;7.90;99.90;;;;;;2615414;54;19969;-69
2023/12/14 06:45:14;;;;;;;;;;;8.00;99.90;;;;;;2616205;54;19962;-69
2023/12/14 06:47:46;;;;;;;;;;;8.00;99.90;;;;;;2616503;39;20345;-69
2023/12/14 06:50:16;;;;;;;;;;;8.00;99.90;;;;;;2616119;54;19954;-69
2023/12/14 06:52:46;;;;;;;;;;;8.10;99.90;;;;;;2602405;54;21535;-68
2023/12/14 06:55:18;;;;;;;;;;;8.10;99.90;;;;;;2596074;54;19951;-68
2023/12/14 06:57:48;;;;;;;;;;;8.10;99.90;;;;;;2594386;47;19953;-70
2023/12/14 07:00:18;;;;;;;;;;;8.10;99.90;;;;;;2596058;54;19946;-69
2023/12/14 07:02:47;;;;;;;;;;;9.40;99.90;;;;;;2597561;54;19954;-68
2023/12/14 07:05:17;;;;;;;;;;;8.10;99.90;;;;;;2598182;54;19950;-69
2023/12/14 07:07:47;;;;;;;;;;;8.20;99.90;;;;;;2595212;54;19954;-69
2023/12/14 07:10:20;;;;;;;;;;;8.20;99.90;;;;;;2597220;47;19954;-70
2023/12/14 07:12:50;;;;;;;;;;;8.20;99.90;;;;;;2593800;54;19973;-61
2023/12/14 07:15:20;;;;;;;;;;;8.30;99.90;;;;;;2598637;47;19950;-61
2023/12/14 07:17:49;;;;;;;;;;;8.30;99.90;;;;;;2597222;47;21863;-62
2023/12/14 07:20:21;;;;;;;;;;;8.30;99.90;;;;;;2598148;54;19990;-62
2023/12/14 07:22:50;;;;;;;;;;;8.40;99.90;;;;;;2596615;54;21302;-62
2023/12/14 07:25:23;;;;;;;;;;;8.40;99.90;;;;;;2598328;54;19950;-62
2023/12/14 07:27:52;;;;;;;;;;;8.40;99.90;;;;;;2596043;54;20472;-61
2023/12/14 07:30:22;;;;;;;;;;;8.50;99.90;;;;;;2599181;54;19946;-61
2023/12/14 07:32:52;;;;;;;;;;;8.50;99.90;;;;;;2598170;54;20113;-61
2023/12/14 07:35:23;;;;;;;;;;;8.60;99.90;;;;;;2599140;47;19954;-61
2023/12/14 07:37:52;;;;;;;;;;;8.50;99.90;;;;;;2596969;54;19951;-61
2023/12/14 07:40:25;;;;;;;;;;;8.60;99.90;;;;;;2595974;54;19955;-61
2023/12/14 07:42:55;;;;;;;;;;;8.60;99.90;;;;;;2598323;54;19955;-61
2023/12/14 07:45:24;;;;;;;;;;;8.60;99.90;;;;;;2599444;39;21371;-62
2023/12/14 07:47:54;;;;;;;;;;;8.60;99.90;;;;;;2592935;46;19947;-62
2023/12/14 07:50:24;;;;;;;;;;;8.70;99.90;;;;;;2595388;47;19946;-70
2023/12/14 07:52:54;;;;;;;;;;;8.70;99.90;;;;;;2598890;54;20025;-71
2023/12/14 07:55:26;;;;;;;;;;;8.70;99.90;;;;;;2598043;54;19951;-70
2023/12/14 07:57:56;;;;;;;;;;;8.70;99.90;;;;;;2595288;39;20408;-69
2023/12/14 08:00:25;;;;;;;;;;;9.00;99.90;;;;;;2594380;54;21125;-69
2023/12/14 08:02:55;;;;;;;;;;;8.80;99.90;;;;;;2596827;54;19958;-70
2023/12/14 08:05:24;;;;;;;;;;;8.80;99.90;;;;;;2597685;54;19950;-72
2023/12/14 08:07:54;;;;;;;;;;;8.70;99.90;;;;;;2595706;54;19955;-71
2023/12/14 08:10:27;;;;;;;;;;;8.70;99.90;;;;;;2596373;47;19951;-70
2023/12/14 08:12:56;;;;;;;;;;;8.80;99.90;;;;;;2596706;54;19951;-70
2023/12/14 08:15:26;;;;;;;;;;;8.80;99.90;;;;;;2594509;47;19946;-70
2023/12/14 08:17:55;;;;;;;;;;;8.80;99.90;;;;;;2598171;54;19954;-71
2023/12/14 08:20:25;;;;;;;;;;;8.80;99.90;;;;;;2598247;54;20002;-70
2023/12/14 08:22:55;;;;;;;;;;;8.80;99.90;;;;;;2597127;54;20005;-72
2023/12/14 08:25:28;;;;;;;;;;;8.80;99.90;;;;;;2597270;39;20112;-73
2023/12/14 08:27:58;;;;;;;;;;;8.80;99.90;;;;;;2595547;54;19950;-71
2023/12/14 08:30:31;;;;;;;;;;;8.80;99.90;;;;;;2596662;54;19946;-72
2023/12/14 08:33:01;;;;;;;;;;;8.70;99.90;;;;;;2596825;54;19950;-70
2023/12/14 08:35:31;;;;;;;;;;;8.80;99.90;;;;;;2595524;54;19957;-71
2023/12/14 08:38:00;;;;;;;;;;;8.70;99.90;;;;;;2598167;54;19962;-71
2023/12/14 08:40:33;;;;;;;;;;;8.70;99.90;;;;;;2599017;54;20021;-71
2023/12/14 08:43:03;;;;;;;;;;;8.70;99.90;;;;;;2597530;54;19954;-72
2023/12/14 08:45:32;;;;;;;;;;;8.70;99.90;;;;;;2595582;54;20502;-71
2023/12/14 08:48:02;;;;;;;;;;;8.70;99.90;;;;;;2595865;54;19958;-71
2023/12/14 08:50:32;;;;;;;;;;;8.70;99.90;;;;;;2597853;47;19961;-71
2023/12/14 08:53:01;;;;;;;;;;;8.70;99.90;;;;;;2597457;54;19951;-71
2023/12/14 08:55:34;;;;;;;;;;;8.70;99.90;;;;;;2596671;54;19961;-71
2023/12/14 08:58:04;;;;;;;;;;;8.70;99.90;;;;;;2596887;47;22219;-70
2023/12/14 09:00:33;;;;;;;;;;;8.70;99.90;;;;;;2597929;54;19952;-71
2023/12/14 09:03:03;;;;;;;;;;;8.70;99.90;;;;;;2595336;47;19951;-70
2023/12/14 09:05:33;;;;;;;;;;;8.70;99.90;;;;;;2599045;39;20365;-71
2023/12/14 09:08:02;;;;;;;;;;;8.70;99.90;;;;;;2597539;54;19950;-71
2023/12/14 09:10:35;;;;;;;;;;;8.80;99.90;;;;;;2596301;54;19950;-73
2023/12/14 09:13:04;;;;;;;;;;;8.80;99.90;;;;;;2596152;54;19970;-71
2023/12/14 09:15:34;;;;;;;;;;;8.80;99.90;;;;;;2597856;39;20330;-70
2023/12/14 09:18:05;;;;;;;;;;;8.70;99.90;;;;;;2595220;47;19950;-70
2023/12/14 09:20:37;;;;;;;;;;;8.80;99.90;;;;;;2598299;54;19979;-70
2023/12/14 09:23:06;;;;;;;;;;;8.80;99.90;;;;;;2598458;54;20568;-70
2023/12/14 09:25:39;;;;;;;;;;;8.80;99.90;;;;;;2598651;54;19977;-70
2023/12/14 09:28:09;;;;;;;;;;;8.80;99.90;;;;;;2596848;54;21387;-70
2023/12/14 09:30:39;;;;;;;;;;;8.80;99.90;;;;;;2596141;54;21416;-70
2023/12/14 09:33:09;;;;;;;;;;;8.80;99.90;;;;;;2596171;54;19946;-72
2023/12/14 09:35:41;;;;;;;;;;;8.80;99.90;;;;;;2597476;54;20472;-70
2023/12/14 09:38:13;;;;;;;;;;;8.90;99.90;;;;;;2596064;54;19950;-70
2023/12/14 09:40:45;;;;;;;;;;;8.80;99.90;;;;;;2598847;54;19949;-72
2023/12/14 09:43:15;;;;;;;;;;;8.80;99.90;;;;;;2597526;53;19950;-71
2023/12/14 09:45:45;;;;;;;;;;;8.90;99.90;;;;;;2597379;47;20449;-71
2023/12/14 09:48:15;;;;;;;;;;;8.90;99.90;;;;;;2596829;54;19957;-71
2023/12/14 09:50:46;;;;;;;;;;;8.90;99.90;;;;;;2595793;54;19954;-72
2023/12/14 09:53:15;;;;;;;;;;;8.90;99.90;;;;;;2596118;54;20809;-70
2023/12/14 09:55:48;;;;;;;;;;;11.00;99.90;;;;;;2597966;47;20153;-72
2023/12/14 09:58:17;;;;;;;;;;;8.80;99.90;;;;;;2593822;54;20823;-71
2023/12/14 10:00:47;;;;;;;;;;;8.80;99.90;;;;;;2595415;54;20602;-71
2023/12/14 10:03:21;;;;;;;;;;;8.70;99.90;;;;;;2597101;54;19954;-71
2023/12/14 10:05:51;;;;;;;;;;;8.60;99.90;;;;;;2598950;39;20573;-71
2023/12/14 10:08:21;;;;;;;;;;;8.70;99.90;;;;;;2595157;54;20026;-71
2023/12/14 10:10:55;;;;;;;;;;;8.70;99.90;;;;;;2596035;54;19954;-70
2023/12/14 10:13:37;;;;;;;;;;;8.60;99.90;;;;;;2597203;54;19951;-71
2023/12/14 10:16:08;;;;;;;;;;;8.60;99.90;;;;;;2595871;54;19950;-72
2023/12/14 10:18:38;;;;;;;;;;;8.60;99.90;;;;;;2594971;54;19951;-72
2023/12/14 10:21:09;;;;;;;;;;;8.60;99.90;;;;;;2597494;54;19951;-72
2023/12/14 10:23:38;;;;;;;;;;;8.50;99.90;;;;;;2597044;54;19955;-73
2023/12/14 10:26:11;;;;;;;;;;;8.50;99.90;;;;;;2595655;54;19961;-71
2023/12/14 10:28:39;;;;;;;;;;;8.50;99.90;;;;;;2596017;47;19951;-70
2023/12/14 10:31:10;;;;;;;;;;;8.40;99.90;;;;;;2597197;54;19957;-71
2023/12/14 10:33:39;;;;;;;;;;;8.40;99.90;;;;;;2593974;47;20917;-72
2023/12/14 10:36:10;;;;;;;;;;;8.40;99.90;;;;;;2596065;47;19953;-70
2023/12/14 10:38:40;;;;;;;;;;;8.50;99.90;;;;;;2594710;46;19966;-70
2023/12/14 10:41:14;;;;;;;;;;;8.50;99.90;;;;;;2596300;54;19966;-71
2023/12/14 10:43:44;;;;;;;;;;;8.50;99.90;;;;;;2596417;54;19951;-71
2023/12/14 10:46:22;;;;;;;;;;;8.50;99.90;;;;;;2596169;54;20574;-71
2023/12/14 10:48:52;;;;;;;;;;;8.50;99.90;;;;;;2595457;54;20441;-72
2023/12/14 10:51:23;;;;;;;;;;;8.60;99.90;;;;;;2597694;54;20018;-71
2023/12/14 10:53:53;;;;;;;;;;;8.60;99.90;;;;;;2595560;39;20670;-70
2023/12/14 10:56:26;;;;;;;;;;;8.60;99.90;;;;;;2597578;54;19958;-70
2023/12/14 10:58:57;;;;;;;;;;;8.60;99.90;;;;;;2595202;47;19993;-69
2023/12/14 11:01:29;;;;;;;;;;;8.60;99.90;;;;;;2595376;54;19938;-69
2023/12/14 11:04:01;;;;;;;;;;;8.70;99.90;;;;;;2596181;54;19981;-68
2023/12/14 11:06:32;;;;;;;;;;;8.80;99.90;;;;;;2597010;54;19957;-68
2023/12/14 11:09:05;;;;;;;;;;;8.80;99.90;;;;;;2595389;54;20110;-70
2023/12/14 11:11:59;;;;;;;;;;;8.90;99.90;;;;;;2596705;54;19953;-68
2023/12/14 11:14:29;;;;;;;;;;;8.90;99.90;;;;;;2597363;39;20036;-69
2023/12/14 11:17:04;;;;;;;;;;;8.90;99.90;;;;;;2597193;54;19950;-70
2023/12/14 11:19:34;;;;;;;;;;;8.90;99.90;;;;;;2595965;46;19970;-69
2023/12/14 11:22:17;;;;;;;;;;;8.90;99.90;;;;;;2596031;54;19950;-69
2023/12/14 11:24:53;;;;;;;;;;;9.00;99.90;;;;;;2595562;54;19946;-69
2023/12/14 11:27:27;;;;;;;;;;;8.90;99.90;;;;;;2596974;54;19957;-69
2023/12/14 11:29:58;;;;;;;;;;;8.90;99.90;;;;;;2595817;54;21042;-69
2023/12/14 11:32:28;;;;;;;;;;;8.90;99.90;;;;;;2596150;54;19951;-69
2023/12/14 11:34:59;;;;;;;;;;;9.00;99.90;;;;;;2596185;54;20480;-69
2023/12/14 11:37:28;;;;;;;;;;;9.50;99.90;;;;;;2597312;54;19966;-68
2023/12/14 11:39:58;;;;;;;;;;;9.10;99.90;;;;;;2594571;54;19958;-69
2023/12/14 11:42:31;;;;;;;;;;;9.10;99.90;;;;;;2596904;54;19950;-68
2023/12/14 11:45:01;;;;;;;;;;;9.00;99.90;;;;;;2596831;39;20455;-69
2023/12/14 11:47:30;;;;;;;;;;;8.50;99.90;;;;;;2609001;54;19947;-69
2023/12/14 11:50:01;;;;;;;;;;;9.00;99.90;;;;;;2611346;47;19954;-68
2023/12/14 11:52:30;;;;;;;;;;;9.00;99.90;;;;;;2615573;39;20323;-69
2023/12/14 11:55:00;;;;;;;;;;;9.00;99.90;;;;;;2614313;54;19942;-71
2023/12/14 11:57:33;;;;;;;;;;;9.00;99.90;;;;;;2616671;54;19974;-71
2023/12/14 12:00:03;;;;;;;;;;;9.00;99.90;;;;;;2615122;54;19954;-71
2023/12/14 12:02:34;;;;;;;;;;;9.00;99.90;;;;;;2616201;47;20748;-72
2023/12/14 12:05:05;;;;;;;;;;;9.10;99.90;;;;;;2615922;54;19939;-71
2023/12/14 12:07:35;;;;;;;;;;;9.10;99.90;;;;;;2615714;54;19949;-70
2023/12/14 12:10:06;;;;;;;;;;;9.10;99.90;;;;;;2612222;54;19955;-71
2023/12/14 12:12:38;;;;;;;;;;;9.10;99.90;;;;;;2615353;54;19953;-70
2023/12/14 12:15:12;;;;;;;;;;;9.20;99.90;;;;;;2616270;39;20354;-73
2023/12/14 12:17:43;;;;;;;;;;;9.10;99.90;;;;;;2615853;54;19946;-71
2023/12/14 12:20:13;;;;;;;;;;;9.20;99.90;;;;;;2615770;47;20037;-73
2023/12/14 12:22:42;;;;;;;;;;;9.20;99.90;;;;;;2615671;54;19950;-73
2023/12/14 12:25:12;;;;;;;;;;;9.20;99.90;;;;;;2614974;54;20027;-73
2023/12/14 12:27:47;;;;;;;;;;;9.90;99.90;;;;;;2616501;50;20010;-73
2023/12/14 12:30:17;;;;;;;;;;;9.30;99.90;;;;;;2614250;47;19946;-73
2023/12/14 12:32:47;;;;;;;;;;;9.20;99.90;;;;;;2614817;54;19946;-73
2023/12/14 12:35:17;;;;;;;;;;;9.10;99.90;;;;;;2614682;54;19954;-72
2023/12/14 12:37:53;;;;;;;;;;;9.10;99.90;;;;;;2616027;54;19946;-72
2023/12/14 12:40:25;;;;;;;;;;;9.10;99.90;;;;;;2614471;39;20103;-68
2023/12/14 12:42:57;;;;;;;;;;;9.10;99.90;;;;;;2614047;54;19947;-69
2023/12/14 12:45:27;;;;;;;;;;;9.10;99.90;;;;;;2614818;54;19962;-69
2023/12/14 12:47:58;;;;;;;;;;;9.10;99.90;;;;;;2614710;54;19951;-71
2023/12/14 12:50:27;;;;;;;;;;;8.90;99.90;;;;;;2614521;47;19981;-70
2023/12/14 12:52:57;;;;;;;;;;;9.00;99.90;;;;;;2614595;54;19939;-71
2023/12/14 12:55:27;;;;;;;;;;;9.00;99.90;;;;;;2614315;54;19939;-71
2023/12/14 12:58:04;;;;;;;;;;;9.00;99.90;;;;;;2616120;39;20345;-69
2023/12/14 13:00:35;;;;;;;;;;;8.90;99.90;;;;;;2614952;54;19957;-70
2023/12/14 13:03:05;;;;;;;;;;;8.90;99.90;;;;;;2612618;54;19953;-69
2023/12/14 13:05:34;;;;;;;;;;;8.80;99.90;;;;;;2614437;39;20334;-70
2023/12/14 13:08:04;;;;;;;;;;;8.80;99.90;;;;;;2614798;54;19945;-70
2023/12/14 13:10:34;;;;;;;;;;;8.80;99.90;;;;;;2614484;49;19946;-71
2023/12/14 13:13:06;;;;;;;;;;;8.80;99.90;;;;;;2613512;47;19953;-71
2023/12/14 13:15:36;;;;;;;;;;;8.80;99.90;;;;;;2612768;54;19947;-71
2023/12/14 13:18:06;;;;;;;;;;;8.70;99.90;;;;;;2611920;54;19946;-70
2023/12/14 13:20:35;;;;;;;;;;;8.80;99.90;;;;;;2613746;54;19969;-70
2023/12/14 13:23:05;;;;;;;;;;;8.70;99.90;;;;;;2613448;47;20018;-71
2023/12/14 13:25:36;;;;;;;;;;;8.70;99.90;;;;;;2613232;47;19946;-71
2023/12/14 13:28:08;;;;;;;;;;;8.70;99.90;;;;;;2616525;54;20442;-71
2023/12/14 13:30:38;;;;;;;;;;;8.70;99.90;;;;;;2617240;54;19935;-72
2023/12/14 13:33:09;;;;;;;;;;;8.60;99.90;;;;;;2616035;54;19938;-70
2023/12/14 13:35:39;;;;;;;;;;;8.50;99.90;;;;;;2616735;54;19939;-70
2023/12/14 13:38:08;;;;;;;;;;;8.50;99.90;;;;;;2616213;39;20364;-71
2023/12/14 13:40:38;;;;;;;;;;;8.40;99.90;;;;;;2615714;54;19953;-69
2023/12/14 13:43:11;;;;;;;;;;;8.50;99.90;;;;;;2615493;47;20059;-70
2023/12/14 13:45:41;;;;;;;;;;;8.50;99.90;;;;;;2616876;47;20425;-70
2023/12/14 13:48:11;;;;;;;;;;;8.50;99.90;;;;;;2616764;47;19978;-70
2023/12/14 13:50:41;;;;;;;;;;;8.50;99.90;;;;;;2616644;54;19990;-70
2023/12/14 13:53:11;;;;;;;;;;;8.50;99.90;;;;;;2614546;54;19943;-70
2023/12/14 13:55:40;;;;;;;;;;;8.50;99.90;;;;;;2615877;54;19953;-70
2023/12/14 13:58:13;;;;;;;;;;;8.50;99.90;;;;;;2616080;39;20333;-70
2023/12/14 14:00:42;;;;;;;;;;;8.50;99.90;;;;;;2616409;54;19935;-69
2023/12/14 14:03:12;;;;;;;;;;;8.50;99.90;;;;;;2617992;54;19946;-69
2023/12/14 14:05:44;;;;;;;;;;;8.60;99.90;;;;;;2621993;46;20086;-70
2023/12/14 14:08:14;;;;;;;;;;;8.50;99.90;;;;;;2619698;54;19946;-70
2023/12/14 14:10:46;;;;;;;;;;;8.50;99.90;;;;;;2616456;54;19953;-69
2023/12/14 14:13:19;;;;;;;;;;;8.60;99.90;;;;;;2616394;54;19980;-71
2023/12/14 14:15:49;;;;;;;;;;;8.50;99.90;;;;;;2615235;54;19938;-70
2023/12/14 14:18:19;;;;;;;;;;;8.40;99.90;;;;;;2614338;54;19953;-70
2023/12/14 14:20:49;;;;;;;;;;;8.40;99.90;;;;;;2610839;54;19947;-69
2023/12/14 14:23:19;;;;;;;;;;;8.40;99.90;;;;;;2615174;47;19958;-70
2023/12/14 14:25:53;;;;;;;;;;;8.40;99.90;;;;;;2614688;54;19946;-70
2023/12/14 14:28:26;;;;;;;;;;;8.40;99.90;;;;;;2615518;54;19951;-71
2023/12/14 14:30:55;;;;;;;;;;;8.40;99.90;;;;;;2615048;54;19947;-70
2023/12/14 14:33:26;;;;;;;;;;;8.40;99.90;;;;;;2615801;54;19969;-71
2023/12/14 14:35:56;;;;;;;;;;;8.30;99.90;;;;;;2617497;54;19946;-70
2023/12/14 14:38:25;;;;;;;;;;;9.40;99.90;;;;;;2615577;54;19958;-71
2023/12/14 14:40:55;;;;;;;;;;;8.30;99.90;;;;;;2616481;54;19954;-70
2023/12/14 14:43:28;;;;;;;;;;;8.30;99.90;;;;;;2612578;54;19989;-72
2023/12/14 14:45:58;;;;;;;;;;;8.30;99.90;;;;;;2617318;47;19941;-71
2023/12/14 14:48:28;;;;;;;;;;;8.30;99.90;;;;;;2615026;54;19947;-72
2023/12/14 14:50:57;;;;;;;;;;;8.30;99.90;;;;;;2615974;54;20058;-71
2023/12/14 14:53:27;;;;;;;;;;;8.30;99.90;;;;;;2615077;39;20368;-72
2023/12/14 14:55:57;;;;;;;;;;;8.30;99.90;;;;;;2616697;54;19954;-74
2023/12/14 14:58:30;;;;;;;;;;;8.30;99.90;;;;;;2618540;54;19947;-72
2023/12/14 15:01:00;;;;;;;;;;;8.20;99.90;;;;;;2624136;54;20054;-74
2023/12/14 15:03:29;;;;;;;;;;;8.20;99.90;;;;;;2622398;54;19947;-73
2023/12/14 15:05:59;;;;;;;;;;;8.10;99.90;;;;;;2621738;47;20540;-71
2023/12/14 15:10:57;;;;;;;;;;;8.10;99.90;;;;;;2615867;39;20546;-73
2023/12/14 15:13:29;;;;;;;;;;;8.40;99.90;;;;;;2614095;47;19950;-72
2023/12/14 15:16:01;;;;;;;;;;;8.00;99.90;;;;;;2610096;47;19961;-72
2023/12/14 15:18:40;;;;;;;;;;;8.00;99.90;;;;;;2617568;47;19951;-71
2023/12/14 15:21:11;;;;;;;;;;;8.00;99.90;;;;;;2618602;54;19955;-72
2023/12/14 15:23:46;;;;;;;;;;;8.00;99.90;;;;;;2616983;47;19950;-73
2023/12/14 15:26:16;;;;;;;;;;;7.90;99.90;;;;;;2616949;47;19950;-76
2023/12/14 15:28:48;;;;;;;;;;;7.90;99.90;;;;;;2618330;47;19953;-73
2023/12/14 15:31:20;;;;;;;;;;;7.90;99.90;;;;;;2618288;46;20474;-69
2023/12/14 15:33:50;;;;;;;;;;;7.90;99.90;;;;;;2616182;54;19946;-71
2023/12/14 15:36:19;;;;;;;;;;;7.80;99.90;;;;;;2617400;54;19939;-72
2023/12/14 15:38:49;;;;;;;;;;;7.80;99.90;;;;;;2617119;54;19950;-71
2023/12/14 15:41:19;;;;;;;;;;;7.80;99.90;;;;;;2614282;47;19973;-72
2023/12/14 15:43:48;;;;;;;;;;;7.70;99.90;;;;;;2617930;54;19947;-71
2023/12/14 15:46:21;;;;;;;;;;;7.70;99.90;;;;;;2616566;47;19947;-71
2023/12/14 15:48:50;;;;;;;;;;;7.70;99.90;;;;;;2618799;54;19938;-71
2023/12/14 15:51:20;;;;;;;;;;;7.70;99.90;;;;;;2618367;54;20047;-71
2023/12/14 15:53:50;;;;;;;;;;;7.70;99.90;;;;;;2616656;54;20465;-71
2023/12/14 15:56:22;;;;;;;;;;;7.70;99.90;;;;;;2617504;54;20524;-71
2023/12/14 15:58:52;;;;;;;;;;;7.70;99.90;;;;;;2617838;31;20436;-71
2023/12/14 16:01:24;;;;;;;;;;;7.70;99.90;;;;;;2617829;54;19942;-71
2023/12/14 16:03:53;;;;;;;;;;;7.80;99.90;;;;;;2617185;54;19987;-71
2023/12/14 16:06:23;;;;;;;;;;;7.80;99.90;;;;;;2617096;54;19950;-71
2023/12/14 16:08:53;;;;;;;;;;;7.90;99.90;;;;;;2616153;47;20006;-71
2023/12/14 16:11:22;;;;;;;;;;;7.90;99.90;;;;;;2616471;54;19953;-71
2023/12/14 16:13:52;;;;;;;;;;;7.90;99.90;;;;;;2616314;47;19946;-70
2023/12/14 16:16:25;;;;;;;;;;;7.90;99.90;;;;;;2616254;54;19946;-71
2023/12/14 16:18:54;;;;;;;;;;;7.80;99.90;;;;;;2617312;47;19950;-71
2023/12/14 16:21:24;;;;;;;;;;;7.80;99.90;;;;;;2616194;54;19947;-71
2023/12/14 16:23:53;;;;;;;;;;;7.80;99.90;;;;;;2615320;54;20476;-72
2023/12/14 16:26:23;;;;;;;;;;;7.80;99.90;;;;;;2617370;54;19942;-71
2023/12/14 16:28:53;;;;;;;;;;;7.70;99.90;;;;;;2617004;54;19959;-72
2023/12/14 16:31:25;;;;;;;;;;;7.70;99.90;;;;;;2616367;50;19954;-71
2023/12/14 16:33:55;;;;;;;;;;;7.80;99.90;;;;;;2616466;47;19958;-71
2023/12/14 16:36:25;;;;;;;;;;;7.80;99.90;;;;;;2615839;54;19939;-71
2023/12/14 16:38:55;;;;;;;;;;;7.80;99.90;;;;;;2616144;47;19947;-71
2023/12/14 16:41:24;;;;;;;;;;;7.90;99.90;;;;;;2618016;54;20061;-70
2023/12/14 16:43:54;;;;;;;;;;;7.90;99.90;;;;;;2616788;54;19990;-71
2023/12/14 16:46:26;;;;;;;;;;;7.90;99.90;;;;;;2615696;47;19985;-71
2023/12/14 16:48:56;;;;;;;;;;;7.90;99.90;;;;;;2614965;47;20449;-71
2023/12/14 16:51:25;;;;;;;;;;;7.90;99.90;;;;;;2614581;54;20058;-70
2023/12/14 16:53:55;;;;;;;;;;;7.90;99.90;;;;;;2614918;54;19950;-71
2023/12/14 16:56:30;;;;;;;;;;;7.90;99.90;;;;;;2615843;47;19946;-73
2023/12/14 16:59:00;;;;;;;;;;;7.80;99.90;;;;;;2615867;47;19946;-70
2023/12/14 17:01:32;;;;;;;;;;;7.80;99.90;;;;;;2615544;47;19939;-71
2023/12/14 17:04:02;;;;;;;;;;;9.70;99.90;;;;;;2616523;39;20357;-71
2023/12/14 17:06:31;;;;;;;;;;;7.70;99.90;;;;;;2616595;39;20345;-70
2023/12/14 17:09:02;;;;;;;;;;;7.70;99.90;;;;;;2614517;54;19951;-71
2023/12/14 17:11:32;;;;;;;;;;;7.60;99.90;;;;;;2617612;54;19946;-70
2023/12/14 17:14:02;;;;;;;;;;;7.60;99.90;;;;;;2615695;54;20465;-70
2023/12/14 17:16:34;;;;;;;;;;;7.70;99.90;;;;;;2616025;39;20680;-70
2023/12/14 17:19:04;;;;;;;;;;;7.60;99.90;;;;;;2616884;54;19946;-70
2023/12/14 17:21:34;;;;;;;;;;;7.60;99.90;;;;;;2617819;47;20050;-71
2023/12/14 17:24:05;;;;;;;;;;;7.60;99.90;;;;;;2617038;54;19945;-70
2023/12/14 17:26:34;;;;;;;;;;;7.50;99.90;;;;;;2615642;39;20041;-70
2023/12/14 17:29:09;;;;;;;;;;;7.50;99.90;;;;;;2614434;46;20027;-70
2023/12/14 17:31:43;;;;;;;;;;;7.60;99.90;;;;;;2613928;54;20142;-75
2023/12/14 17:34:13;;;;;;;;;;;7.60;99.90;;;;;;2615267;54;19946;-75
2023/12/14 17:36:43;;;;;;;;;;;7.50;99.90;;;;;;2614151;39;20385;-70
2023/12/14 17:39:12;;;;;;;;;;;7.50;99.90;;;;;;2614431;54;19957;-74
2023/12/14 17:41:42;;;;;;;;;;;7.50;99.90;;;;;;2614656;54;19978;-73
2023/12/14 17:44:12;;;;;;;;;;;7.50;99.90;;;;;;2616182;54;19946;-74
2023/12/14 17:46:44;;;;;;;;;;;7.50;99.90;;;;;;2615867;54;19946;-75
2023/12/14 17:49:14;;;;;;;;;;;7.30;99.90;;;;;;2615939;47;19994;-76
2023/12/14 17:51:44;;;;;;;;;;;7.40;99.90;;;;;;2614481;47;19955;-75
2023/12/14 17:54:14;;;;;;;;;;;7.50;99.90;;;;;;2615302;47;19958;-75
2023/12/14 17:56:45;;;;;;;;;;;7.50;99.90;;;;;;2616105;47;19947;-73
2023/12/14 17:59:17;;;;;;;;;;;7.50;99.90;;;;;;2615910;47;19970;-75
2023/12/14 18:01:51;;;;;;;;;;;7.50;99.90;;;;;;2612815;50;20069;-71